createdAt,value
2019-05-16T00:00:10.230Z,3.00
2019-05-16T00:01:10.059Z,2.00
2019-05-16T00:02:10.487Z,2.90
2019-05-16T00:03:10.090Z,2.40
2019-05-16T00:05:10.190Z,2.00
2019-05-16T00:06:10.399Z,3.40
2019-05-16T00:07:10.198Z,2.60
2019-05-16T00:08:12.566Z,2.20
2019-05-16T00:09:10.255Z,3.30
2019-05-16T00:10:10.282Z,2.10
2019-05-16T00:11:10.310Z,3.10
2019-05-16T00:12:10.337Z,1.70
2019-05-16T00:13:10.365Z,4.40
2019-05-16T00:14:10.392Z,3.80
2019-05-16T00:15:10.421Z,2.40
2019-05-16T00:16:10.448Z,6.10
2019-05-16T00:17:10.475Z,2.30
2019-05-16T00:18:10.504Z,3.00
2019-05-16T00:19:10.532Z,4.40
2019-05-16T00:20:10.557Z,2.10
2019-05-16T00:21:10.592Z,2.30
2019-05-16T00:22:10.614Z,4.10
2019-05-16T00:23:10.642Z,2.90
2019-05-16T00:24:10.669Z,3.20
2019-05-16T00:25:10.697Z,2.90
2019-05-16T00:26:10.723Z,3.60
2019-05-16T00:27:10.751Z,3.10
2019-05-16T00:28:10.777Z,4.40
2019-05-16T00:29:10.806Z,2.80
2019-05-16T00:30:10.833Z,4.60
2019-05-16T00:31:10.861Z,3.50
2019-05-16T00:32:10.887Z,4.60
2019-05-16T00:33:10.915Z,2.70
2019-05-16T00:34:10.944Z,2.70
2019-05-16T00:35:10.973Z,4.30
2019-05-16T00:36:10.996Z,2.40
2019-05-16T00:37:11.025Z,3.10
2019-05-16T00:38:11.053Z,3.40
2019-05-16T00:39:11.080Z,2.10
2019-05-16T00:40:11.110Z,2.20
2019-05-16T00:41:11.135Z,2.20
2019-05-16T00:42:11.164Z,2.40
2019-05-16T00:43:11.189Z,5.30
2019-05-16T00:44:11.217Z,2.20
2019-05-16T00:45:13.399Z,2.20
2019-05-16T00:46:11.273Z,2.50
2019-05-16T00:47:11.299Z,2.00
2019-05-16T00:48:11.325Z,4.10
2019-05-16T00:49:11.355Z,2.50
2019-05-16T00:50:11.383Z,3.10
2019-05-16T00:51:11.611Z,4.00
2019-05-16T00:52:11.434Z,2.80
2019-05-16T00:53:11.462Z,4.70
2019-05-16T00:54:11.489Z,2.40
2019-05-16T00:55:11.516Z,3.90
2019-05-16T00:56:11.542Z,2.40
2019-05-16T00:57:11.571Z,4.50
2019-05-16T00:58:11.598Z,3.30
2019-05-16T00:59:11.956Z,2.60
2019-05-16T01:00:11.651Z,2.30
2019-05-16T01:01:11.681Z,2.40
2019-05-16T01:02:11.707Z,2.40
2019-05-16T01:03:11.735Z,2.10
2019-05-16T01:04:11.760Z,2.20
2019-05-16T01:05:14.385Z,1.90
2019-05-16T01:06:19.101Z,4.30
2019-05-16T01:07:11.869Z,3.60
2019-05-16T01:08:11.871Z,3.50
2019-05-16T01:09:11.896Z,2.20
2019-05-16T01:10:11.924Z,3.10
2019-05-16T01:11:11.951Z,3.90
2019-05-16T01:12:11.977Z,4.40
2019-05-16T01:13:12.004Z,1.90
2019-05-16T01:14:12.031Z,2.00
2019-05-16T01:15:12.059Z,4.70
2019-05-16T01:16:12.085Z,2.10
2019-05-16T01:17:12.111Z,2.00
2019-05-16T01:18:12.143Z,2.80
2019-05-16T01:19:12.165Z,1.90
2019-05-16T01:20:12.197Z,5.40
2019-05-16T01:21:12.219Z,2.10
2019-05-16T01:22:12.247Z,2.20
2019-05-16T01:23:14.895Z,4.20
2019-05-16T01:24:12.325Z,1.90
2019-05-16T01:25:12.349Z,1.90
2019-05-16T01:26:12.354Z,2.50
2019-05-16T01:27:12.390Z,2.20
2019-05-16T01:28:12.405Z,2.10
2019-05-16T01:29:12.434Z,1.80
2019-05-16T01:30:12.462Z,1.70
2019-05-16T01:31:12.511Z,2.40
2019-05-16T01:32:12.514Z,3.50
2019-05-16T01:33:12.566Z,2.70
2019-05-16T01:34:12.590Z,5.20
2019-05-16T01:35:12.818Z,2.50
2019-05-16T01:37:12.647Z,4.20
2019-05-16T01:38:12.697Z,1.80
2019-05-16T01:39:13.436Z,2.10
2019-05-16T01:40:12.929Z,2.00
2019-05-16T01:41:17.865Z,3.20
2019-05-16T01:42:12.781Z,4.90
2019-05-16T01:43:12.808Z,2.90
2019-05-16T01:44:13.162Z,2.60
2019-05-16T01:45:12.883Z,1.70
2019-05-16T01:46:13.113Z,4.00
2019-05-16T01:47:12.914Z,3.70
2019-05-16T01:48:18.757Z,1.90
2019-05-16T01:49:12.968Z,3.50
2019-05-16T01:50:12.994Z,2.20
2019-05-16T01:51:13.023Z,3.70
2019-05-16T01:52:13.048Z,4.10
2019-05-16T01:53:13.074Z,5.00
2019-05-16T01:54:13.102Z,3.10
2019-05-16T01:55:13.148Z,1.90
2019-05-16T01:56:13.153Z,1.70
2019-05-16T01:57:13.205Z,1.90
2019-05-16T01:58:13.231Z,2.30
2019-05-16T01:59:13.234Z,2.80
2019-05-16T02:00:13.260Z,3.30
2019-05-16T02:01:15.830Z,3.80
2019-05-16T02:02:13.313Z,1.90
2019-05-16T02:03:13.341Z,1.70
2019-05-16T02:04:13.365Z,2.40
2019-05-16T02:05:13.394Z,1.70
2019-05-16T02:06:13.447Z,4.30
2019-05-16T02:07:13.445Z,1.90
2019-05-16T02:08:13.471Z,2.10
2019-05-16T02:10:13.546Z,2.20
2019-05-16T02:11:13.572Z,4.40
2019-05-16T02:13:13.603Z,2.10
2019-05-16T02:14:13.629Z,1.90
2019-05-16T02:15:13.656Z,1.70
2019-05-16T02:16:13.682Z,3.20
2019-05-16T02:17:13.709Z,3.90
2019-05-16T02:18:13.736Z,2.40
2019-05-16T02:19:13.761Z,2.50
2019-05-16T02:20:13.788Z,6.40
2019-05-16T02:21:13.814Z,3.30
2019-05-16T02:22:13.841Z,2.10
2019-05-16T02:23:13.867Z,2.20
2019-05-16T02:24:13.894Z,2.60
2019-05-16T02:25:13.920Z,6.10
2019-05-16T02:26:13.949Z,2.80
2019-05-16T02:27:13.973Z,3.00
2019-05-16T02:28:13.998Z,5.40
2019-05-16T02:29:14.025Z,5.20
2019-05-16T02:30:14.056Z,2.40
2019-05-16T02:31:15.312Z,4.20
2019-05-16T02:32:14.109Z,2.70
2019-05-16T02:33:14.131Z,4.10
2019-05-16T02:34:14.158Z,2.10
2019-05-16T02:35:14.185Z,3.00
2019-05-16T02:36:14.210Z,2.20
2019-05-16T02:37:24.426Z,4.20
2019-05-16T02:38:14.263Z,2.40
2019-05-16T02:39:14.289Z,2.30
2019-05-16T02:40:14.315Z,2.30
2019-05-16T02:41:14.341Z,2.40
2019-05-16T02:42:14.371Z,3.40
2019-05-16T02:43:14.395Z,2.60
2019-05-16T02:44:14.418Z,2.20
2019-05-16T02:45:14.445Z,3.50
2019-05-16T02:46:14.473Z,3.60
2019-05-16T02:47:14.500Z,3.00
2019-05-16T02:48:14.525Z,3.00
2019-05-16T02:49:14.555Z,3.00
2019-05-16T02:50:14.576Z,5.50
2019-05-16T02:51:14.604Z,3.70
2019-05-16T02:52:14.629Z,3.10
2019-05-16T02:53:14.656Z,2.30
2019-05-16T02:54:14.682Z,2.20
2019-05-16T02:55:14.708Z,2.70
2019-05-16T02:56:14.733Z,2.50
2019-05-16T02:57:14.759Z,6.30
2019-05-16T02:58:14.786Z,2.40
2019-05-16T02:59:14.817Z,3.70
2019-05-16T03:00:14.838Z,1.60
2019-05-16T03:01:14.865Z,2.30
2019-05-16T03:02:14.889Z,6.20
2019-05-16T03:03:14.916Z,2.50
2019-05-16T03:04:14.942Z,3.00
2019-05-16T03:05:14.970Z,2.70
2019-05-16T03:06:14.995Z,2.40
2019-05-16T03:07:33.010Z,2.40
2019-05-16T03:08:15.049Z,2.40
2019-05-16T03:09:15.074Z,2.40
2019-05-16T03:10:15.098Z,3.20
2019-05-16T03:11:15.125Z,2.20
2019-05-16T03:12:15.150Z,6.00
2019-05-16T03:13:15.177Z,3.40
2019-05-16T03:14:21.227Z,2.70
2019-05-16T03:15:15.230Z,2.60
2019-05-16T03:16:15.255Z,4.60
2019-05-16T03:17:15.280Z,4.60
2019-05-16T03:18:15.306Z,2.20
2019-05-16T03:19:15.333Z,2.50
2019-05-16T03:20:15.367Z,2.80
2019-05-16T03:21:15.384Z,2.80
2019-05-16T03:22:15.411Z,3.30
2019-05-16T03:23:15.436Z,2.60
2019-05-16T03:24:15.463Z,2.60
2019-05-16T03:25:15.490Z,2.90
2019-05-16T03:26:15.517Z,3.80
2019-05-16T03:27:15.541Z,4.20
2019-05-16T03:28:15.566Z,3.60
2019-05-16T03:29:15.591Z,5.00
2019-05-16T03:30:17.067Z,3.10
2019-05-16T03:31:15.995Z,4.10
2019-05-16T03:32:15.691Z,3.20
2019-05-16T03:33:24.248Z,2.60
2019-05-16T03:34:17.109Z,5.10
2019-05-16T03:35:23.849Z,3.30
2019-05-16T03:36:16.221Z,2.50
2019-05-16T03:37:15.824Z,3.90
2019-05-16T03:38:15.837Z,2.30
2019-05-16T03:39:15.851Z,2.50
2019-05-16T03:40:15.877Z,2.50
2019-05-16T03:41:15.903Z,2.60
2019-05-16T03:42:15.933Z,2.40
2019-05-16T03:43:15.954Z,3.60
2019-05-16T03:44:15.978Z,2.80
2019-05-16T03:45:16.009Z,2.60
2019-05-16T03:46:16.032Z,2.70
2019-05-16T03:47:16.056Z,3.30
2019-05-16T03:48:16.082Z,3.00
2019-05-16T03:49:16.109Z,2.90
2019-05-16T03:50:16.135Z,5.70
2019-05-16T03:51:16.161Z,6.60
2019-05-16T03:52:16.185Z,2.70
2019-05-16T03:53:16.211Z,4.60
2019-05-16T03:54:16.235Z,4.70
2019-05-16T03:55:16.262Z,3.10
2019-05-16T03:56:16.291Z,3.10
2019-05-16T03:57:16.323Z,2.70
2019-05-16T03:58:16.341Z,6.30
2019-05-16T03:59:16.367Z,2.80
2019-05-16T04:00:16.393Z,2.80
2019-05-16T04:01:16.422Z,3.00
2019-05-16T04:02:16.444Z,2.90
2019-05-16T04:03:16.470Z,4.20
2019-05-16T04:04:16.496Z,5.80
2019-05-16T04:05:16.529Z,3.20
2019-05-16T04:06:16.547Z,3.40
2019-05-16T04:07:16.572Z,4.30
2019-05-16T04:08:23.135Z,2.70
2019-05-16T04:09:16.624Z,3.40
2019-05-16T04:10:16.651Z,7.10
2019-05-16T04:11:22.149Z,8.10
2019-05-16T04:12:16.707Z,7.90
2019-05-16T04:13:16.726Z,3.20
2019-05-16T04:14:16.754Z,3.70
2019-05-16T04:15:16.793Z,4.10
2019-05-16T04:16:16.808Z,2.60
2019-05-16T04:17:16.831Z,3.60
2019-05-16T04:18:16.858Z,2.70
2019-05-16T04:19:16.886Z,4.50
2019-05-16T04:20:16.911Z,3.30
2019-05-16T04:21:17.700Z,2.30
2019-05-16T04:22:16.988Z,3.30
2019-05-16T04:23:16.985Z,4.20
2019-05-16T04:24:17.013Z,3.90
2019-05-16T04:25:17.038Z,2.70
2019-05-16T04:26:21.717Z,3.40
2019-05-16T04:27:17.089Z,3.50
2019-05-16T04:28:17.119Z,3.00
2019-05-16T04:29:20.469Z,3.10
2019-05-16T04:30:17.168Z,2.80
2019-05-16T04:31:17.197Z,3.40
2019-05-16T04:32:17.224Z,7.40
2019-05-16T04:33:17.248Z,2.90
2019-05-16T04:34:20.454Z,3.50
2019-05-16T04:35:17.296Z,3.00
2019-05-16T04:36:17.321Z,4.20
2019-05-16T04:37:17.347Z,3.40
2019-05-16T04:38:31.620Z,2.90
2019-05-16T04:39:20.645Z,3.60
2019-05-16T04:40:17.425Z,3.20
2019-05-16T04:41:20.767Z,4.10
2019-05-16T04:42:17.477Z,3.70
2019-05-16T04:43:17.504Z,3.60
2019-05-16T04:44:17.528Z,3.60
2019-05-16T04:45:20.915Z,4.60
2019-05-16T04:46:20.898Z,6.30
2019-05-16T04:47:20.859Z,3.50
2019-05-16T04:48:17.633Z,3.60
2019-05-16T04:49:20.941Z,3.40
2019-05-16T04:50:20.800Z,3.70
2019-05-16T04:51:17.713Z,3.70
2019-05-16T04:52:17.741Z,3.80
2019-05-16T04:53:20.526Z,4.20
2019-05-16T04:54:17.795Z,3.80
2019-05-16T04:55:20.766Z,3.90
2019-05-16T04:56:17.846Z,5.60
2019-05-16T04:57:20.793Z,4.10
2019-05-16T04:58:22.615Z,6.00
2019-05-16T04:59:20.811Z,4.10
2019-05-16T05:00:21.080Z,4.30
2019-05-16T05:01:21.198Z,4.00
2019-05-16T05:02:21.073Z,8.60
2019-05-16T05:03:20.818Z,4.50
2019-05-16T05:04:20.906Z,4.50
2019-05-16T05:05:21.172Z,5.10
2019-05-16T05:06:20.624Z,6.40
2019-05-16T05:07:20.785Z,5.00
2019-05-16T05:08:21.391Z,4.60
2019-05-16T05:09:20.734Z,3.90
2019-05-16T05:10:20.703Z,4.20
2019-05-16T05:11:21.232Z,5.00
2019-05-16T05:12:20.770Z,4.50
2019-05-16T05:13:21.624Z,3.80
2019-05-16T05:14:21.042Z,4.00
2019-05-16T05:15:21.065Z,5.00
2019-05-16T05:16:20.280Z,3.90
2019-05-16T05:17:20.876Z,3.50
2019-05-16T05:18:21.378Z,3.80
2019-05-16T05:19:20.255Z,4.00
2019-05-16T05:20:20.949Z,3.80
2019-05-16T05:21:20.991Z,4.30
2019-05-16T05:22:19.918Z,4.20
2019-05-16T05:23:20.922Z,3.90
2019-05-16T05:24:19.699Z,5.60
2019-05-16T05:25:20.392Z,3.40
2019-05-16T05:26:19.961Z,3.90
2019-05-16T05:27:19.736Z,3.80
2019-05-16T05:28:21.052Z,4.20
2019-05-16T05:29:20.015Z,8.20
2019-05-16T05:30:19.783Z,5.10
2019-05-16T05:31:24.414Z,3.50
2019-05-16T05:32:20.030Z,5.40
2019-05-16T05:33:20.985Z,3.60
2019-05-16T05:34:19.893Z,5.10
2019-05-16T05:35:20.682Z,4.30
2019-05-16T05:36:21.099Z,3.50
2019-05-16T05:37:20.440Z,5.50
2019-05-16T05:38:21.407Z,3.00
2019-05-16T05:39:20.011Z,4.70
2019-05-16T05:40:20.076Z,2.60
2019-05-16T05:41:19.905Z,4.10
2019-05-16T05:42:19.963Z,3.30
2019-05-16T05:43:21.675Z,3.90
2019-05-16T05:44:20.345Z,6.60
2019-05-16T05:45:20.128Z,3.30
2019-05-16T05:46:20.427Z,5.10
2019-05-16T05:47:20.007Z,4.90
2019-05-16T05:48:21.716Z,5.70
2019-05-16T05:49:20.497Z,3.50
2019-05-16T05:50:20.202Z,3.20
2019-05-16T05:51:20.710Z,3.50
2019-05-16T05:52:20.789Z,4.60
2019-05-16T05:53:20.934Z,3.60
2019-05-16T05:54:20.394Z,4.00
2019-05-16T05:55:20.027Z,6.30
2019-05-16T05:56:19.811Z,7.00
2019-05-16T05:57:20.891Z,4.40
2019-05-16T05:58:20.545Z,8.70
2019-05-16T05:59:20.112Z,4.20
2019-05-16T06:00:21.119Z,9.10
2019-05-16T06:01:20.483Z,5.50
2019-05-16T06:02:20.128Z,7.80
2019-05-16T06:03:22.150Z,8.80
2019-05-16T06:04:19.859Z,5.20
2019-05-16T06:05:20.326Z,9.10
2019-05-16T06:06:23.049Z,30.30
2019-05-16T06:07:20.527Z,43.80
2019-05-16T06:08:20.295Z,29.50
2019-05-16T06:09:28.425Z,26.90
2019-05-16T06:10:20.042Z,24.40
2019-05-16T06:11:20.523Z,25.10
2019-05-16T06:12:21.261Z,30.20
2019-05-16T06:13:20.841Z,33.50
2019-05-16T06:14:21.284Z,38.20
2019-05-16T06:15:20.426Z,40.10
2019-05-16T06:17:20.280Z,49.30
2019-05-16T06:18:20.312Z,54.50
2019-05-16T06:19:20.498Z,36.70
2019-05-16T06:20:20.429Z,27.50
2019-05-16T06:21:20.548Z,21.30
2019-05-16T06:22:20.624Z,7.60
2019-05-16T06:23:20.878Z,9.90
2019-05-16T06:24:20.409Z,7.30
2019-05-16T06:25:22.831Z,7.10
2019-05-16T06:26:20.635Z,7.70
2019-05-16T06:27:21.021Z,8.90
2019-05-16T06:28:21.065Z,5.80
2019-05-16T06:29:20.589Z,6.50
2019-05-16T06:30:21.401Z,8.30
2019-05-16T06:31:22.007Z,8.20
2019-05-16T06:32:20.497Z,6.40
2019-05-16T06:33:20.561Z,6.10
2019-05-16T06:34:21.086Z,10.90
2019-05-16T06:35:23.690Z,8.20
2019-05-16T06:36:20.658Z,7.20
2019-05-16T06:37:20.714Z,6.80
2019-05-16T06:38:21.296Z,9.70
2019-05-16T06:39:20.703Z,8.50
2019-05-16T06:40:20.733Z,6.80
2019-05-16T06:41:20.763Z,9.60
2019-05-16T06:42:20.795Z,6.90
2019-05-16T06:43:20.902Z,6.80
2019-05-16T06:44:20.869Z,7.30
2019-05-16T06:45:20.883Z,15.10
2019-05-16T06:46:20.929Z,6.20
2019-05-16T06:47:23.115Z,6.50
2019-05-16T06:49:21.054Z,5.60
2019-05-16T06:50:21.134Z,5.00
2019-05-16T06:51:21.063Z,5.00
2019-05-16T06:52:21.094Z,5.10
2019-05-16T06:53:21.401Z,6.50
2019-05-16T06:54:21.156Z,4.60
2019-05-16T06:55:21.184Z,6.30
2019-05-16T06:56:21.216Z,5.30
2019-05-16T06:57:21.245Z,5.00
2019-05-16T06:58:22.313Z,5.00
2019-05-16T06:59:21.305Z,5.30
2019-05-16T07:00:21.348Z,5.60
2019-05-16T07:01:21.367Z,5.80
2019-05-16T07:02:30.288Z,8.60
2019-05-16T07:03:21.430Z,10.40
2019-05-16T07:04:21.465Z,6.00
2019-05-16T07:05:21.489Z,4.70
2019-05-16T07:06:46.074Z,5.30
2019-05-16T07:07:21.550Z,5.60
2019-05-16T07:08:21.581Z,7.60
2019-05-16T07:09:21.611Z,9.70
2019-05-16T07:10:21.642Z,11.40
2019-05-16T07:11:21.673Z,5.40
2019-05-16T07:12:21.709Z,5.60
2019-05-16T07:13:21.735Z,5.70
2019-05-16T07:14:22.918Z,6.60
2019-05-16T07:15:21.798Z,6.20
2019-05-16T07:16:21.877Z,6.00
2019-05-16T07:17:21.861Z,6.90
2019-05-16T07:18:21.903Z,5.50
2019-05-16T07:19:21.926Z,5.50
2019-05-16T07:20:21.955Z,5.50
2019-05-16T07:21:21.987Z,10.70
2019-05-16T07:24:22.081Z,9.00
2019-05-16T07:29:24.591Z,4.90
2019-05-16T07:31:22.767Z,7.40
2019-05-16T07:34:22.398Z,5.90
2019-05-16T07:35:22.438Z,5.80
2019-05-16T07:36:22.465Z,8.20
2019-05-16T07:37:22.518Z,6.20
2019-05-16T07:39:22.985Z,9.20
2019-05-16T07:42:22.680Z,6.60
2019-05-16T07:43:22.684Z,6.30
2019-05-16T07:44:22.741Z,6.00
2019-05-16T07:45:22.977Z,12.60
2019-05-16T07:46:24.214Z,6.30
2019-05-16T07:49:23.808Z,7.00
2019-05-16T07:54:23.082Z,6.80
2019-05-16T08:01:23.248Z,6.60
2019-05-16T08:02:23.281Z,6.80
2019-05-16T08:03:23.337Z,6.90
2019-05-16T08:04:23.344Z,7.20
2019-05-16T08:05:23.377Z,6.90
2019-05-16T08:06:23.408Z,7.10
2019-05-16T08:07:23.440Z,6.60
2019-05-16T08:08:24.554Z,11.20
2019-05-16T08:09:23.503Z,8.90
2019-05-16T08:10:37.200Z,10.30
2019-05-16T08:11:23.893Z,8.20
2019-05-16T08:12:26.443Z,7.60
2019-05-16T08:13:23.633Z,9.40
2019-05-16T08:14:23.733Z,7.70
2019-05-16T08:15:23.706Z,9.00
2019-05-16T08:16:23.728Z,6.90
2019-05-16T08:17:23.759Z,6.90
2019-05-16T08:18:23.794Z,6.90
2019-05-16T08:19:25.355Z,7.20
2019-05-16T08:20:23.856Z,6.70
2019-05-16T08:21:27.543Z,7.60
2019-05-16T08:22:23.923Z,6.30
2019-05-16T08:23:23.955Z,7.70
2019-05-16T08:24:23.986Z,6.40
2019-05-16T08:25:24.019Z,6.10
2019-05-16T08:26:24.079Z,5.60
2019-05-16T08:27:24.087Z,6.10
2019-05-16T08:28:24.119Z,6.50
2019-05-16T08:29:24.165Z,6.20
2019-05-16T08:30:24.182Z,6.20
2019-05-16T08:31:24.217Z,6.50
2019-05-16T08:32:24.247Z,6.60
2019-05-16T08:33:24.285Z,6.00
2019-05-16T08:34:24.360Z,7.50
2019-05-16T08:35:24.345Z,5.90
2019-05-16T08:36:24.376Z,6.30
2019-05-16T08:37:37.074Z,6.20
2019-05-16T08:38:24.456Z,6.10
2019-05-16T08:39:24.477Z,6.40
2019-05-16T08:40:24.711Z,6.20
2019-05-16T08:41:24.541Z,5.60
2019-05-16T08:42:24.575Z,6.40
2019-05-16T08:43:24.609Z,6.60
2019-05-16T08:44:24.641Z,9.60
2019-05-16T08:45:24.682Z,5.60
2019-05-16T08:46:24.707Z,5.40
2019-05-16T08:47:24.740Z,7.60
2019-05-16T08:48:24.773Z,9.40
2019-05-16T08:49:24.805Z,7.90
2019-05-16T08:50:24.839Z,5.60
2019-05-16T08:51:24.871Z,6.20
2019-05-16T08:52:24.906Z,6.20
2019-05-16T08:53:24.938Z,5.10
2019-05-16T08:54:25.003Z,7.50
2019-05-16T08:55:25.007Z,8.30
2019-05-16T08:56:25.038Z,5.50
2019-05-16T08:57:27.771Z,5.80
2019-05-16T08:58:25.107Z,5.50
2019-05-16T08:59:25.139Z,5.40
2019-05-16T09:00:25.173Z,5.60
2019-05-16T09:01:25.206Z,5.90
2019-05-16T09:02:33.597Z,5.10
2019-05-16T09:03:25.275Z,5.30
2019-05-16T09:04:25.489Z,5.30
2019-05-16T09:05:25.364Z,5.70
2019-05-16T09:06:25.376Z,6.40
2019-05-16T09:07:25.410Z,5.30
2019-05-16T09:08:25.444Z,5.40
2019-05-16T09:09:41.605Z,6.10
2019-05-16T09:11:35.027Z,5.90
2019-05-16T09:12:27.846Z,6.10
2019-05-16T09:13:27.942Z,6.00
2019-05-16T09:14:27.604Z,7.90
2019-05-16T09:15:27.265Z,5.60
2019-05-16T09:16:27.498Z,5.30
2019-05-16T09:17:27.701Z,5.40
2019-05-16T09:18:28.960Z,5.20
2019-05-16T09:19:27.574Z,5.50
2019-05-16T09:20:28.076Z,4.70
2019-05-16T09:21:27.488Z,4.20
2019-05-16T09:22:28.238Z,4.70
2019-05-16T09:23:26.846Z,4.50
2019-05-16T09:24:27.151Z,4.40
2019-05-16T09:25:27.433Z,3.80
2019-05-16T09:26:27.750Z,3.80
2019-05-16T09:27:27.283Z,8.10
2019-05-16T09:28:28.312Z,4.90
2019-05-16T09:29:27.245Z,6.40
2019-05-16T09:30:27.530Z,6.00
2019-05-16T09:31:27.482Z,5.00
2019-05-16T09:32:28.415Z,4.80
2019-05-16T09:33:27.145Z,6.60
2019-05-16T09:34:28.346Z,5.40
2019-05-16T09:35:28.037Z,5.30
2019-05-16T09:36:28.011Z,4.70
2019-05-16T09:37:26.892Z,5.00
2019-05-16T09:38:28.431Z,4.80
2019-05-16T09:39:27.720Z,5.00
2019-05-16T09:40:27.824Z,4.70
2019-05-16T09:41:32.165Z,5.40
2019-05-16T09:42:27.761Z,5.00
2019-05-16T09:43:28.234Z,4.70
2019-05-16T09:44:27.380Z,5.20
2019-05-16T09:45:27.416Z,7.50
2019-05-16T09:46:27.643Z,4.40
2019-05-16T09:47:28.237Z,5.20
2019-05-16T09:48:27.970Z,4.70
2019-05-16T09:49:26.914Z,4.70
2019-05-16T09:50:26.973Z,5.20
2019-05-16T09:51:27.347Z,4.80
2019-05-16T09:52:27.473Z,6.00
2019-05-16T09:54:27.464Z,5.70
2019-05-16T09:56:27.200Z,4.60
2019-05-16T09:57:27.982Z,5.40
2019-05-16T09:58:28.002Z,9.40
2019-05-16T09:59:27.285Z,5.20
2019-05-16T10:00:27.323Z,6.20
2019-05-16T10:01:27.741Z,5.50
2019-05-16T10:02:27.617Z,5.70
2019-05-16T10:03:27.474Z,5.10
2019-05-16T10:04:27.474Z,5.40
2019-05-16T10:05:27.520Z,5.40
2019-05-16T10:06:27.763Z,5.90
2019-05-16T10:07:28.436Z,6.00
2019-05-16T10:08:27.615Z,5.30
2019-05-16T10:09:41.225Z,5.30
2019-05-16T10:10:27.741Z,5.10
2019-05-16T10:11:30.918Z,5.20
2019-05-16T10:12:27.762Z,7.50
2019-05-16T10:13:28.092Z,5.80
2019-05-16T10:14:27.835Z,7.60
2019-05-16T10:15:27.871Z,4.60
2019-05-16T10:16:27.908Z,5.20
2019-05-16T10:17:27.945Z,5.70
2019-05-16T10:18:28.095Z,5.30
2019-05-16T10:19:28.019Z,5.50
2019-05-16T10:20:28.053Z,5.50
2019-05-16T10:21:28.091Z,5.50
2019-05-16T10:22:28.127Z,5.40
2019-05-16T10:23:28.523Z,5.60
2019-05-16T10:24:28.198Z,5.70
2019-05-16T10:25:28.239Z,6.10
2019-05-16T10:26:28.272Z,5.50
2019-05-16T10:27:28.308Z,4.90
2019-05-16T10:28:28.366Z,5.70
2019-05-16T10:29:28.391Z,5.40
2019-05-16T10:30:28.424Z,5.00
2019-05-16T10:31:41.648Z,6.20
2019-05-16T10:32:28.492Z,5.90
2019-05-16T10:33:28.525Z,7.20
2019-05-16T10:34:28.560Z,4.50
2019-05-16T10:35:30.150Z,4.60
2019-05-16T10:36:28.632Z,7.10
2019-05-16T10:37:28.668Z,5.80
2019-05-16T10:38:28.875Z,6.10
2019-05-16T10:39:28.743Z,6.50
2019-05-16T10:40:28.776Z,5.50
2019-05-16T10:41:28.814Z,6.00
2019-05-16T10:42:29.328Z,6.40
2019-05-16T10:43:28.888Z,6.30
2019-05-16T10:44:28.925Z,7.30
2019-05-16T10:45:28.965Z,5.70
2019-05-16T10:46:29.003Z,6.20
2019-05-16T10:47:31.339Z,5.70
2019-05-16T10:48:29.071Z,7.20
2019-05-16T10:49:36.793Z,5.80
2019-05-16T10:50:29.174Z,6.40
2019-05-16T10:51:29.199Z,5.30
2019-05-16T10:52:29.218Z,6.10
2019-05-16T10:53:57.858Z,5.50
2019-05-16T10:54:29.368Z,6.80
2019-05-16T10:55:29.385Z,5.20
2019-05-16T10:56:29.363Z,5.80
2019-05-16T10:57:30.001Z,4.70
2019-05-16T10:58:36.891Z,5.00
2019-05-16T11:00:58.056Z,4.70
2019-05-16T11:01:31.322Z,4.90
2019-05-16T11:02:29.618Z,5.70
2019-05-16T11:03:29.618Z,5.20
2019-05-16T11:04:48.397Z,5.10
2019-05-16T11:05:33.728Z,11.40
2019-05-16T11:06:29.728Z,7.20
2019-05-16T11:07:30.115Z,5.60
2019-05-16T11:08:29.802Z,6.50
2019-05-16T11:09:29.838Z,6.80
2019-05-16T11:10:30.089Z,5.90
2019-05-16T11:11:29.912Z,5.70
2019-05-16T11:12:46.101Z,6.10
2019-05-16T11:13:33.040Z,7.40
2019-05-16T11:14:30.022Z,5.70
2019-05-16T11:15:30.058Z,6.40
2019-05-16T11:16:30.095Z,5.10
2019-05-16T11:17:30.131Z,5.90
2019-05-16T11:18:30.174Z,4.40
2019-05-16T11:19:30.231Z,5.00
2019-05-16T11:20:30.283Z,5.20
2019-05-16T11:21:30.280Z,5.30
2019-05-16T11:22:30.317Z,4.00
2019-05-16T11:23:31.479Z,6.80
2019-05-16T11:24:30.432Z,4.60
2019-05-16T11:25:32.645Z,4.70
2019-05-16T11:26:30.484Z,5.90
2019-05-16T11:27:30.530Z,5.60
2019-05-16T11:28:30.546Z,3.90
2019-05-16T11:29:30.574Z,4.60
2019-05-16T11:30:30.651Z,8.40
2019-05-16T11:31:30.647Z,7.00
2019-05-16T11:32:30.683Z,5.50
2019-05-16T11:33:30.721Z,4.10
2019-05-16T11:34:30.757Z,3.80
2019-05-16T11:35:30.794Z,4.30
2019-05-16T11:36:30.828Z,4.20
2019-05-16T11:37:30.864Z,5.10
2019-05-16T11:38:30.902Z,4.90
2019-05-16T11:39:30.936Z,2.90
2019-05-16T11:40:30.972Z,3.50
2019-05-16T11:41:31.012Z,3.10
2019-05-16T11:42:31.047Z,4.30
2019-05-16T11:43:31.081Z,4.10
2019-05-16T11:44:31.116Z,5.20
2019-05-16T11:45:31.153Z,7.60
2019-05-16T11:46:31.188Z,7.60
2019-05-16T11:47:31.226Z,5.20
2019-05-16T11:48:31.261Z,4.90
2019-05-16T11:49:31.296Z,6.50
2019-05-16T11:50:31.333Z,4.70
2019-05-16T11:51:31.371Z,4.50
2019-05-16T11:52:31.406Z,6.90
2019-05-16T11:53:31.441Z,4.50
2019-05-16T11:54:31.478Z,4.40
2019-05-16T11:55:34.663Z,4.40
2019-05-16T11:56:31.548Z,4.10
2019-05-16T11:57:31.585Z,3.90
2019-05-16T11:58:31.621Z,5.00
2019-05-16T11:59:31.658Z,4.50
2019-05-16T12:00:31.695Z,7.10
2019-05-16T12:01:31.729Z,4.00
2019-05-16T12:02:31.774Z,5.50
2019-05-16T12:03:31.806Z,6.10
2019-05-16T12:04:31.840Z,5.00
2019-05-16T12:05:31.875Z,28.40
2019-05-16T12:06:31.938Z,87.50
2019-05-16T12:07:34.322Z,22.90
2019-05-16T12:08:31.984Z,10.90
2019-05-16T12:09:34.371Z,13.20
2019-05-16T12:10:32.060Z,11.40
2019-05-16T12:11:32.094Z,7.60
2019-05-16T12:12:32.130Z,3.80
2019-05-16T12:13:33.075Z,4.90
2019-05-16T12:14:32.204Z,9.30
2019-05-16T12:15:32.241Z,4.40
2019-05-16T12:16:32.276Z,3.60
2019-05-16T12:17:32.316Z,5.40
2019-05-16T12:18:32.350Z,6.10
2019-05-16T12:19:35.399Z,4.10
2019-05-16T12:20:32.425Z,3.50
2019-05-16T12:21:32.460Z,3.60
2019-05-16T12:22:32.517Z,3.20
2019-05-16T12:23:32.533Z,3.40
2019-05-16T12:24:37.441Z,3.40
2019-05-16T12:25:32.607Z,4.00
2019-05-16T12:26:32.644Z,3.90
2019-05-16T12:27:33.815Z,2.70
2019-05-16T12:28:32.716Z,3.10
2019-05-16T12:29:32.758Z,3.50
2019-05-16T12:30:32.791Z,2.70
2019-05-16T12:31:32.830Z,3.80
2019-05-16T12:32:32.862Z,13.70
2019-05-16T12:33:32.902Z,10.60
2019-05-16T12:34:32.937Z,5.20
2019-05-16T12:35:32.974Z,5.00
2019-05-16T12:36:33.012Z,3.40
2019-05-16T12:37:33.048Z,5.10
2019-05-16T12:38:33.089Z,4.00
2019-05-16T12:39:33.550Z,3.00
2019-05-16T12:40:33.183Z,2.70
2019-05-16T12:41:33.196Z,3.50
2019-05-16T12:42:33.232Z,3.60
2019-05-16T12:43:46.198Z,4.10
2019-05-16T12:44:33.357Z,3.20
2019-05-16T12:45:33.394Z,3.00
2019-05-16T12:47:30.971Z,3.00
2019-05-16T12:48:31.012Z,2.50
2019-05-16T12:49:33.668Z,2.30
2019-05-16T12:50:31.088Z,2.10
2019-05-16T12:51:31.123Z,3.90
2019-05-16T12:52:31.162Z,2.50
2019-05-16T12:53:32.228Z,2.10
2019-05-16T12:54:31.236Z,2.40
2019-05-16T12:55:31.276Z,8.90
2019-05-16T12:56:31.366Z,2.30
2019-05-16T12:57:31.360Z,12.60
2019-05-16T12:58:37.834Z,9.90
2019-05-16T12:59:31.429Z,9.70
2019-05-16T13:00:31.469Z,4.50
2019-05-16T13:01:34.343Z,3.50
2019-05-16T13:02:31.548Z,4.80
2019-05-16T13:03:31.588Z,2.80
2019-05-16T13:04:31.629Z,2.40
2019-05-16T13:05:31.666Z,3.80
2019-05-16T13:06:32.035Z,2.60
2019-05-16T13:07:31.800Z,2.70
2019-05-16T13:08:31.802Z,2.10
2019-05-16T13:09:31.825Z,4.50
2019-05-16T13:10:31.864Z,3.70
2019-05-16T13:11:31.906Z,2.40
2019-05-16T13:12:31.944Z,3.50
2019-05-16T13:13:31.984Z,3.70
2019-05-16T13:14:32.022Z,2.20
2019-05-16T13:15:32.062Z,3.90
2019-05-16T13:16:32.100Z,1.70
2019-05-16T13:17:32.140Z,1.90
2019-05-16T13:18:32.178Z,2.30
2019-05-16T13:19:34.030Z,2.90
2019-05-16T13:20:32.259Z,5.50
2019-05-16T13:21:32.294Z,4.70
2019-05-16T13:22:32.333Z,1.70
2019-05-16T13:23:32.371Z,5.90
2019-05-16T13:24:32.411Z,3.80
2019-05-16T13:25:32.451Z,3.50
2019-05-16T13:26:32.487Z,2.20
2019-05-16T13:27:32.530Z,2.20
2019-05-16T13:28:32.574Z,2.50
2019-05-16T13:29:32.619Z,2.80
2019-05-16T13:30:32.642Z,3.30
2019-05-16T13:31:32.682Z,1.70
2019-05-16T13:32:32.720Z,2.00
2019-05-16T13:33:32.757Z,2.50
2019-05-16T13:34:32.796Z,2.00
2019-05-16T13:35:32.834Z,3.50
2019-05-16T13:36:32.874Z,2.00
2019-05-16T13:37:32.924Z,2.30
2019-05-16T13:38:32.951Z,2.50
2019-05-16T13:39:32.989Z,1.80
2019-05-16T13:40:33.049Z,3.20
2019-05-16T13:41:34.473Z,3.50
2019-05-16T13:42:33.103Z,1.90
2019-05-16T13:43:33.141Z,3.30
2019-05-16T13:44:33.179Z,2.80
2019-05-16T13:45:33.215Z,1.50
2019-05-16T13:46:33.257Z,3.00
2019-05-16T13:47:33.290Z,1.90
2019-05-16T13:48:33.329Z,2.40
2019-05-16T13:49:33.369Z,6.40
2019-05-16T13:50:36.532Z,6.90
2019-05-16T13:51:33.441Z,3.50
2019-05-16T13:52:33.484Z,5.10